Portada
METAR-TAF:

METAR-TAF

Aeropuertos :

Aeropuerto de Valencia

Valencia, España

latitud: 39-30N, longitud: 000-28W, altitud: 69 m

Observación

El informe se hizo hace 14 minutos, a las 20:30 UTC
Viento 6 kt del noroeste
Temperatura 19°C
Humedad 83%
Presión 1019 hPa
Visibilidad 10 km o más
sin nubes por debajo de 1500 m y sin presencia de cumulonimbus.

METAR: LEVC 202030Z 32006KT CAVOK 19/16 Q1019 NOSIG

Hora: 22:44 (20:44 UTC)

Pronóstico

El informe se hizo hace 3 horas y 44 minutos, a las 17:00 UTC
Pronóstico válido del 20 a las 18 UTC al 21 a las 18 UTC
Viento 4 kt con dirección variable
Visibilidad 10 km o más
Escasas nubes a una altura de 3000 ft
Evolucionando progresivamente
del 21 a las 11 UTC al 21 a las 13 UTC
Viento 10 kt del este

TAF: LEVC 201700Z 2018/2118 VRB04KT 9999 FEW030 TX28/2112Z TN17/2106Z BECMG 2111/2113 10010KT

Observaciones y pronósticos meteorológicos de más de 4000 aeropuertos (mensajes METAR y TAF).

Los puntos amarillos y rojos representan las estaciones disponibles.

Ponga el ratón en el punto deseado para ver el nombre de la estación.

Haga clic para ver las observaciones y los pronósticos meteorológicos.

Para cambiar el mapa : haga clic en los botones verdes con una cruz de color negro para hacer un zoom, en el botón verde con un guión para alejar o en las flechas verdes para mapas adyacentes.


METAR-TAF: